createdAt,value
2023-01-25T00:01:07.552Z,19.77
2023-01-25T00:03:34.729Z,17.75
2023-01-25T00:06:02.041Z,21.90
2023-01-25T00:08:28.969Z,20.70
2023-01-25T00:10:58.239Z,17.17
2023-01-25T00:13:26.815Z,20.58
2023-01-25T00:15:53.740Z,21.17
2023-01-25T00:18:21.306Z,20.33
2023-01-25T00:20:48.275Z,20.02
2023-01-25T00:23:15.382Z,18.65
2023-01-25T00:25:42.469Z,21.50
2023-01-25T00:28:09.380Z,20.15
2023-01-25T00:30:36.323Z,18.83
2023-01-25T00:33:53.466Z,21.17
2023-01-25T00:36:36.915Z,18.13
2023-01-25T00:39:06.218Z,21.50
2023-01-25T00:41:33.306Z,19.83
2023-01-25T00:44:00.307Z,21.35
2023-01-25T00:46:27.404Z,17.95
2023-01-25T00:48:55.371Z,19.90
2023-01-25T00:51:24.047Z,19.45
2023-01-25T00:53:51.487Z,19.55
2023-01-25T00:56:18.926Z,20.02
2023-01-25T00:58:45.921Z,18.08
2023-01-25T01:01:13.657Z,20.45
2023-01-25T01:03:40.818Z,23.08
2023-01-25T01:06:12.008Z,17.20
2023-01-25T01:08:41.010Z,20.23
2023-01-25T01:11:11.633Z,17.05
2023-01-25T01:13:39.882Z,20.67
2023-01-25T01:16:14.012Z,20.77
2023-01-25T01:18:45.418Z,16.92
2023-01-25T01:21:13.725Z,19.92
2023-01-25T01:23:41.328Z,21.30
2023-01-25T01:26:13.745Z,21.10
2023-01-25T01:28:40.931Z,20.55
2023-01-25T01:31:18.877Z,21.30
2023-01-25T01:33:56.921Z,20.77
2023-01-25T01:36:27.384Z,22.98
2023-01-25T01:38:54.719Z,18.90
2023-01-25T01:41:22.266Z,20.35
2023-01-25T01:43:50.265Z,19.77
2023-01-25T01:46:31.881Z,20.77
2023-01-25T01:49:17.525Z,23.63
2023-01-25T01:52:11.101Z,19.05
2023-01-25T01:54:53.590Z,20.42
2023-01-25T01:57:25.928Z,20.35
2023-01-25T02:00:00.600Z,22.63
2023-01-25T02:02:27.814Z,20.15
2023-01-25T02:05:00.141Z,22.58
2023-01-25T02:07:37.751Z,18.48
2023-01-25T02:10:08.241Z,22.35
2023-01-25T02:12:37.367Z,24.73
2023-01-25T02:15:06.840Z,21.27
2023-01-25T02:17:39.846Z,21.13
2023-01-25T02:20:41.263Z,22.20
2023-01-25T02:23:37.194Z,21.80
2023-01-25T02:26:06.569Z,24.75
2023-01-25T02:28:41.584Z,20.95
2023-01-25T02:31:09.008Z,22.73
2023-01-25T02:33:36.952Z,25.58
2023-01-25T02:36:07.525Z,22.02
2023-01-25T02:38:50.486Z,23.83
2023-01-25T02:41:28.280Z,24.27
2023-01-25T02:43:55.251Z,23.88
2023-01-25T02:46:28.623Z,20.95
2023-01-25T02:48:56.574Z,22.30
2023-01-25T02:51:26.970Z,19.65
2023-01-25T02:53:56.042Z,22.73
2023-01-25T02:56:23.617Z,27.25
2023-01-25T02:58:51.107Z,23.55
2023-01-25T03:01:20.301Z,22.27
2023-01-25T03:03:47.426Z,24.27
2023-01-25T03:06:14.629Z,23.13
2023-01-25T03:08:43.404Z,21.95
2023-01-25T03:11:10.680Z,24.95
2023-01-25T03:13:38.157Z,21.38
2023-01-25T03:16:09.426Z,23.88
2023-01-25T03:18:37.356Z,24.33
2023-01-25T03:21:17.445Z,21.33
2023-01-25T03:23:47.441Z,22.30
2023-01-25T03:26:21.986Z,26.38
2023-01-25T03:29:14.031Z,24.38
2023-01-25T03:31:43.821Z,23.95
2023-01-25T03:34:10.866Z,24.92
2023-01-25T03:36:41.139Z,26.50
2023-01-25T03:39:08.247Z,23.20
2023-01-25T03:41:40.159Z,26.83
2023-01-25T03:44:11.450Z,23.05
2023-01-25T03:46:40.709Z,22.52
2023-01-25T03:49:08.601Z,25.20
2023-01-25T03:51:35.898Z,23.67
2023-01-25T03:54:03.420Z,22.40
2023-01-25T03:56:30.583Z,22.23
2023-01-25T03:59:04.572Z,22.90
2023-01-25T04:01:32.832Z,28.80
2023-01-25T04:04:00.259Z,24.90
2023-01-25T04:06:27.653Z,25.88
2023-01-25T04:08:54.745Z,23.10
2023-01-25T04:11:24.570Z,23.92
2023-01-25T04:13:51.806Z,25.38
2023-01-25T04:16:21.134Z,26.10
2023-01-25T04:19:20.266Z,22.98
2023-01-25T04:21:47.341Z,26.98
2023-01-25T04:24:14.808Z,27.80
2023-01-25T04:26:44.073Z,22.08
2023-01-25T04:29:12.915Z,24.23
2023-01-25T04:31:40.268Z,24.15
2023-01-25T04:34:07.159Z,25.17
2023-01-25T04:36:34.218Z,20.58
2023-01-25T04:39:02.363Z,21.88
2023-01-25T04:41:29.415Z,19.08
2023-01-25T04:43:57.509Z,18.80
2023-01-25T04:46:25.532Z,26.98
2023-01-25T04:48:53.644Z,22.70
2023-01-25T04:51:21.314Z,28.40
2023-01-25T04:53:48.257Z,25.85
2023-01-25T04:56:15.391Z,22.75
2023-01-25T04:58:50.685Z,24.55
2023-01-25T05:01:17.618Z,23.30
2023-01-25T05:03:44.683Z,22.30
2023-01-25T05:06:23.979Z,21.70
2023-01-25T05:08:51.243Z,21.40
2023-01-25T05:11:18.418Z,22.02
2023-01-25T05:14:11.356Z,21.50
2023-01-25T05:16:38.571Z,22.90
2023-01-25T05:19:12.276Z,22.25
2023-01-25T05:21:58.715Z,24.05
2023-01-25T05:24:32.242Z,21.73
2023-01-25T05:27:03.889Z,21.98
2023-01-25T05:29:49.028Z,19.42
2023-01-25T05:32:20.488Z,17.42
2023-01-25T05:34:48.339Z,19.02
2023-01-25T05:37:19.275Z,21.65
2023-01-25T05:39:48.298Z,16.45
2023-01-25T05:42:18.592Z,18.45
2023-01-25T05:44:47.925Z,20.75
2023-01-25T05:47:18.045Z,15.40
2023-01-25T05:49:45.309Z,12.95
2023-01-25T05:52:20.032Z,12.23
2023-01-25T05:54:47.058Z,13.07
2023-01-25T05:57:16.221Z,13.48
2023-01-25T05:59:43.408Z,14.20
2023-01-25T06:02:12.611Z,14.65
2023-01-25T06:04:41.043Z,14.13
2023-01-25T06:07:09.818Z,16.20
2023-01-25T06:09:37.366Z,12.10
2023-01-25T06:12:06.398Z,13.60
2023-01-25T06:14:33.597Z,13.60
2023-01-25T06:17:02.436Z,13.25
2023-01-25T06:19:32.077Z,13.02
2023-01-25T06:22:09.468Z,14.52
2023-01-25T06:24:36.558Z,15.32
2023-01-25T06:27:03.733Z,14.30
2023-01-25T06:29:30.713Z,12.85
2023-01-25T06:31:58.153Z,13.98
2023-01-25T06:34:25.095Z,11.75
2023-01-25T06:36:53.236Z,12.52
2023-01-25T06:39:20.293Z,14.88
2023-01-25T06:41:47.525Z,16.08
2023-01-25T06:44:14.637Z,13.65
2023-01-25T06:46:41.743Z,15.77
2023-01-25T06:49:10.659Z,14.27
2023-01-25T06:51:37.691Z,13.40
2023-01-25T06:54:04.753Z,11.73
2023-01-25T06:56:32.848Z,13.88
2023-01-25T06:58:59.829Z,15.30
2023-01-25T07:01:27.511Z,15.18
2023-01-25T07:03:58.248Z,13.65
2023-01-25T07:06:27.320Z,12.82
2023-01-25T07:08:54.645Z,15.13
2023-01-25T07:11:21.545Z,19.30
2023-01-25T07:13:48.829Z,13.20
2023-01-25T07:16:20.083Z,21.17
2023-01-25T07:18:47.879Z,14.93
2023-01-25T07:21:21.318Z,14.77
2023-01-25T07:23:50.320Z,16.77
2023-01-25T07:26:19.813Z,15.77
2023-01-25T07:28:48.490Z,16.60
2023-01-25T07:31:18.097Z,12.65
2023-01-25T07:33:53.300Z,14.45
2023-01-25T07:36:21.679Z,15.13
2023-01-25T07:38:54.813Z,25.52
2023-01-25T07:41:22.850Z,17.75
2023-01-25T07:43:52.155Z,15.20
2023-01-25T07:49:05.318Z,15.90
2023-01-25T07:51:32.412Z,18.67
2023-01-25T07:54:03.191Z,17.15
2023-01-25T07:56:37.922Z,15.55
2023-01-25T07:59:08.151Z,18.50
2023-01-25T08:01:37.322Z,20.38
2023-01-25T08:04:05.440Z,18.95
2023-01-25T08:06:38.670Z,17.77
2023-01-25T08:09:17.421Z,16.92
2023-01-25T08:11:44.411Z,19.73
2023-01-25T08:14:11.899Z,23.48
2023-01-25T08:16:38.843Z,17.67
2023-01-25T08:19:05.883Z,20.48
2023-01-25T08:21:34.925Z,22.27
2023-01-25T08:24:07.760Z,20.08
2023-01-25T08:26:35.948Z,23.27
2023-01-25T08:29:04.001Z,24.02
2023-01-25T08:31:34.023Z,25.15
2023-01-25T08:34:02.056Z,27.65
2023-01-25T08:36:29.413Z,27.73
2023-01-25T08:39:00.452Z,30.92
2023-01-25T08:41:29.980Z,32.10
2023-01-25T08:43:57.271Z,26.15
2023-01-25T08:46:29.375Z,27.35
2023-01-25T08:48:58.302Z,32.83
2023-01-25T08:51:26.242Z,32.72
2023-01-25T08:53:53.727Z,31.60
2023-01-25T08:56:21.412Z,35.60
2023-01-25T08:58:50.128Z,35.88
2023-01-25T09:01:19.865Z,39.00
2023-01-25T09:03:50.309Z,41.78
2023-01-25T09:06:19.606Z,40.08
2023-01-25T09:08:46.958Z,36.03
2023-01-25T09:11:20.369Z,39.20
2023-01-25T09:13:48.880Z,39.50
2023-01-25T09:16:20.566Z,34.20
2023-01-25T09:18:49.821Z,30.70
2023-01-25T09:21:19.124Z,31.67
2023-01-25T09:23:51.229Z,31.58
2023-01-25T09:26:32.490Z,32.75
2023-01-25T09:29:00.049Z,29.90
2023-01-25T09:31:30.406Z,32.30
2023-01-25T09:34:16.914Z,29.05
2023-01-25T09:36:44.574Z,30.48
2023-01-25T09:39:14.801Z,33.05
2023-01-25T09:42:06.743Z,34.08
2023-01-25T09:45:11.382Z,30.42
2023-01-25T09:47:56.025Z,28.30
2023-01-25T09:50:42.835Z,28.27
2023-01-25T09:53:35.865Z,28.42
2023-01-25T09:56:20.615Z,29.45
2023-01-25T09:58:51.557Z,28.88
2023-01-25T10:01:38.185Z,29.17
2023-01-25T10:04:19.187Z,32.00
2023-01-25T10:07:00.219Z,27.80
2023-01-25T10:09:53.650Z,25.25
2023-01-25T10:12:24.398Z,26.77
2023-01-25T10:14:52.574Z,30.48
2023-01-25T10:17:41.894Z,29.42
2023-01-25T10:20:41.381Z,23.10
2023-01-25T10:23:24.426Z,26.88
2023-01-25T10:26:01.426Z,31.58
2023-01-25T10:28:42.271Z,35.08
2023-01-25T10:31:20.022Z,31.73
2023-01-25T10:33:49.246Z,26.42
2023-01-25T10:36:23.100Z,30.73
2023-01-25T10:38:50.441Z,28.15
2023-01-25T10:41:30.190Z,26.73
2023-01-25T10:44:20.226Z,28.35
2023-01-25T10:47:04.540Z,30.67
2023-01-25T10:49:47.019Z,28.38
2023-01-25T10:52:20.628Z,25.08
2023-01-25T10:54:52.421Z,27.30
2023-01-25T10:57:22.539Z,31.67
2023-01-25T10:59:52.876Z,31.08
2023-01-25T11:02:47.240Z,28.65
2023-01-25T11:05:29.617Z,24.33
2023-01-25T11:07:58.422Z,25.02
2023-01-25T11:10:35.790Z,22.77
2023-01-25T11:13:19.290Z,28.75
2023-01-25T11:16:13.708Z,21.83
2023-01-25T11:18:54.352Z,22.60
2023-01-25T11:21:25.596Z,27.80
2023-01-25T11:24:11.868Z,25.08
2023-01-25T11:26:40.854Z,27.13
2023-01-25T11:29:29.707Z,30.75
2023-01-25T11:31:57.715Z,26.00
2023-01-25T11:34:29.305Z,25.27
2023-01-25T11:37:54.694Z,30.05
2023-01-25T11:40:45.210Z,33.17
2023-01-25T11:43:38.360Z,31.70
2023-01-25T11:46:21.729Z,32.78
2023-01-25T11:49:53.229Z,30.20
2023-01-25T11:52:28.585Z,27.50
2023-01-25T11:55:43.193Z,34.08
2023-01-25T11:58:27.037Z,29.00
2023-01-25T12:01:46.862Z,31.00
2023-01-25T12:04:54.328Z,26.88
2023-01-25T12:07:45.857Z,33.63
2023-01-25T12:10:29.038Z,36.55
2023-01-25T12:13:20.756Z,30.52
2023-01-25T12:16:22.823Z,33.65
2023-01-25T12:19:39.552Z,33.05
2023-01-25T12:22:36.884Z,32.55
2023-01-25T12:28:03.353Z,34.75
2023-01-25T12:30:48.562Z,37.17
2023-01-25T12:33:40.485Z,37.30
2023-01-25T12:36:32.103Z,35.08
2023-01-25T12:39:19.968Z,36.92
2023-01-25T12:42:08.953Z,34.22
2023-01-25T12:44:43.780Z,34.97
2023-01-25T12:47:10.573Z,39.22
2023-01-25T12:49:57.222Z,33.75
2023-01-25T12:52:46.063Z,33.70
2023-01-25T12:55:17.097Z,33.97
2023-01-25T12:57:55.823Z,39.13
2023-01-25T13:00:45.866Z,34.70
2023-01-25T13:03:30.683Z,34.03
2023-01-25T13:06:09.079Z,35.38
2023-01-25T13:09:07.914Z,31.58
2023-01-25T13:11:43.886Z,32.67
2023-01-25T13:14:16.905Z,47.22
2023-01-25T13:17:09.331Z,37.55
2023-01-25T13:19:36.864Z,40.20
2023-01-25T13:22:04.620Z,33.85
2023-01-25T13:24:34.208Z,35.03
2023-01-25T13:27:01.074Z,39.22
2023-01-25T13:29:36.609Z,34.28
2023-01-25T13:32:06.225Z,36.73
2023-01-25T13:34:36.195Z,33.17
2023-01-25T13:37:18.200Z,29.95
2023-01-25T13:39:49.740Z,34.50
2023-01-25T13:42:28.925Z,31.98
2023-01-25T13:45:14.367Z,30.50
2023-01-25T13:47:43.905Z,31.10
2023-01-25T13:50:27.258Z,32.35
2023-01-25T13:53:06.133Z,28.52
2023-01-25T13:55:44.178Z,32.80
2023-01-25T13:58:26.620Z,29.33
2023-01-25T14:00:55.414Z,35.47
2023-01-25T14:03:40.376Z,29.33
2023-01-25T14:06:15.751Z,33.78
2023-01-25T14:08:45.536Z,38.42
2023-01-25T14:11:29.796Z,33.42
2023-01-25T14:14:03.639Z,33.42
2023-01-25T14:16:31.987Z,32.08
2023-01-25T14:19:28.929Z,31.92
2023-01-25T14:22:19.943Z,29.27
2023-01-25T14:25:11.644Z,28.77
2023-01-25T14:27:54.959Z,29.13
2023-01-25T14:30:29.175Z,27.63
2023-01-25T14:33:02.860Z,38.03
2023-01-25T14:36:08.860Z,36.38
2023-01-25T14:38:37.821Z,28.13
2023-01-25T14:41:17.295Z,28.77
2023-01-25T14:43:56.358Z,28.92
2023-01-25T14:46:29.280Z,33.83
2023-01-25T14:49:17.693Z,30.55
2023-01-25T14:51:53.123Z,28.83
2023-01-25T14:54:26.875Z,36.08
2023-01-25T14:57:00.668Z,31.15
2023-01-25T14:59:39.186Z,33.28
2023-01-25T15:02:25.512Z,29.95
2023-01-25T15:05:15.233Z,34.83
2023-01-25T15:07:45.440Z,29.45
2023-01-25T15:10:24.152Z,25.02
2023-01-25T15:13:07.707Z,29.50
2023-01-25T15:16:01.259Z,33.55
2023-01-25T15:18:54.350Z,26.60
2023-01-25T15:21:25.947Z,30.63
2023-01-25T15:23:54.886Z,30.75
2023-01-25T15:26:31.378Z,25.98
2023-01-25T15:29:10.960Z,27.50
2023-01-25T15:31:38.775Z,26.80
2023-01-25T15:34:06.283Z,34.33
2023-01-25T15:36:33.838Z,29.08
2023-01-25T15:39:00.991Z,28.85
2023-01-25T15:41:27.834Z,29.92
2023-01-25T15:43:54.881Z,30.23
2023-01-25T15:46:25.370Z,34.80
2023-01-25T15:48:52.940Z,27.33
2023-01-25T15:51:20.321Z,28.73
2023-01-25T15:53:47.860Z,29.77
2023-01-25T15:56:32.631Z,29.40
2023-01-25T15:59:01.720Z,28.38
2023-01-25T16:01:30.209Z,28.13
2023-01-25T16:03:59.295Z,35.03
2023-01-25T16:06:42.873Z,30.90
2023-01-25T16:09:36.255Z,38.38
2023-01-25T16:12:03.325Z,28.15
2023-01-25T16:14:31.467Z,35.92
2023-01-25T16:17:02.894Z,30.52
2023-01-25T16:19:30.278Z,36.20
2023-01-25T16:21:57.357Z,34.58
2023-01-25T16:24:24.525Z,27.33
2023-01-25T16:26:55.465Z,26.30
2023-01-25T16:29:23.017Z,31.73
2023-01-25T16:31:51.027Z,30.67
2023-01-25T16:34:18.276Z,30.13
2023-01-25T16:36:50.161Z,24.25
2023-01-25T16:39:26.370Z,31.13
2023-01-25T16:41:54.057Z,25.88
2023-01-25T16:44:21.521Z,25.77
2023-01-25T16:46:50.043Z,26.02
2023-01-25T16:49:26.152Z,26.83
2023-01-25T16:51:54.476Z,24.98
2023-01-25T16:54:23.344Z,34.38
2023-01-25T16:56:52.163Z,26.63
2023-01-25T16:59:21.799Z,25.95
2023-01-25T17:01:49.385Z,22.95
2023-01-25T17:04:17.230Z,29.38
2023-01-25T17:06:48.449Z,28.70
2023-01-25T17:09:24.462Z,31.75
2023-01-25T17:11:53.423Z,30.08
2023-01-25T17:14:21.075Z,28.13
2023-01-25T17:16:51.240Z,23.95
2023-01-25T17:19:19.548Z,32.20
2023-01-25T17:21:47.266Z,27.83
2023-01-25T17:24:17.962Z,27.88
2023-01-25T17:26:45.152Z,29.52
2023-01-25T17:29:13.529Z,24.77
2023-01-25T17:31:42.048Z,33.38
2023-01-25T17:34:16.518Z,28.45
2023-01-25T17:36:44.463Z,27.95
2023-01-25T17:39:16.705Z,29.05
2023-01-25T17:41:49.102Z,29.58
2023-01-25T17:44:24.400Z,23.15
2023-01-25T17:46:51.909Z,27.92
2023-01-25T17:49:19.412Z,24.83
2023-01-25T17:51:46.995Z,23.50
2023-01-25T17:54:14.029Z,19.90
2023-01-25T17:56:40.876Z,23.75
2023-01-25T17:59:11.614Z,28.83
2023-01-25T18:01:42.650Z,25.23
2023-01-25T18:04:10.275Z,23.70
2023-01-25T18:06:37.532Z,22.33
2023-01-25T18:09:06.423Z,23.15
2023-01-25T18:11:36.733Z,24.25
2023-01-25T18:14:12.463Z,23.63
2023-01-25T18:16:41.375Z,27.10
2023-01-25T18:19:09.020Z,23.52
2023-01-25T18:21:37.347Z,25.42
2023-01-25T18:24:22.608Z,27.10
2023-01-25T18:26:51.326Z,26.35
2023-01-25T18:29:53.239Z,29.08
2023-01-25T18:32:20.403Z,32.40
2023-01-25T18:34:48.252Z,35.67
2023-01-25T18:37:20.289Z,27.27
2023-01-25T18:39:52.765Z,27.83
2023-01-25T18:42:21.789Z,28.52
2023-01-25T18:44:48.617Z,35.15
2023-01-25T18:47:21.087Z,34.25
2023-01-25T18:49:49.988Z,36.00
2023-01-25T18:52:19.928Z,32.17
2023-01-25T18:54:47.354Z,29.65
2023-01-25T18:57:15.737Z,30.27
2023-01-25T18:59:44.129Z,37.72
2023-01-25T19:02:14.473Z,34.97
2023-01-25T19:04:42.417Z,33.55
2023-01-25T19:07:09.550Z,29.42
2023-01-25T19:09:37.055Z,29.25
2023-01-25T19:12:05.089Z,30.35
2023-01-25T19:14:32.146Z,23.60
2023-01-25T19:16:59.252Z,30.30
2023-01-25T19:19:31.703Z,22.48
2023-01-25T19:21:59.731Z,24.50
2023-01-25T19:24:27.013Z,27.30
2023-01-25T19:26:56.586Z,30.23
2023-01-25T19:29:23.840Z,28.40
2023-01-25T19:31:50.882Z,27.98
2023-01-25T19:34:17.951Z,23.23
2023-01-25T19:36:53.862Z,28.75
2023-01-25T19:39:20.915Z,24.70
2023-01-25T19:41:47.746Z,23.90
2023-01-25T19:44:15.220Z,22.00
2023-01-25T19:46:42.841Z,21.88
2023-01-25T19:49:11.740Z,26.15
2023-01-25T19:51:42.212Z,23.90
2023-01-25T19:54:15.781Z,25.83
2023-01-25T19:56:48.503Z,25.65
2023-01-25T19:59:25.335Z,24.95
2023-01-25T20:01:52.407Z,24.73
2023-01-25T20:04:22.465Z,24.30
2023-01-25T20:06:51.107Z,24.77
2023-01-25T20:09:20.225Z,23.70
2023-01-25T20:11:47.622Z,27.52
2023-01-25T20:14:15.404Z,23.77
2023-01-25T20:16:42.763Z,24.15
2023-01-25T20:19:12.005Z,25.67
2023-01-25T20:21:39.625Z,28.52
2023-01-25T20:24:08.547Z,27.42
2023-01-25T20:26:38.944Z,39.72
2023-01-25T20:29:07.518Z,25.40
2023-01-25T20:31:37.013Z,26.02
2023-01-25T20:34:10.216Z,32.40
2023-01-25T20:36:37.517Z,27.13
2023-01-25T20:39:07.282Z,24.77
2023-01-25T20:41:35.035Z,25.65
2023-01-25T20:44:11.061Z,25.42
2023-01-25T20:46:41.470Z,24.75
2023-01-25T20:49:17.634Z,25.30
2023-01-25T20:51:45.601Z,25.95
2023-01-25T20:54:12.791Z,25.17
2023-01-25T20:56:40.435Z,26.02
2023-01-25T20:59:08.058Z,21.05
2023-01-25T21:01:37.271Z,20.85
2023-01-25T21:04:07.801Z,19.55
2023-01-25T21:06:35.227Z,19.50
2023-01-25T21:09:03.696Z,21.23
2023-01-25T21:11:31.111Z,20.80
2023-01-25T21:13:59.476Z,23.35
2023-01-25T21:16:26.947Z,22.83
2023-01-25T21:19:00.035Z,22.15
2023-01-25T21:21:30.583Z,23.70
2023-01-25T21:24:00.125Z,22.50
2023-01-25T21:26:33.753Z,24.92
2023-01-25T21:29:02.348Z,22.65
2023-01-25T21:31:35.388Z,23.58
2023-01-25T21:34:03.534Z,23.08
2023-01-25T21:36:30.753Z,23.80
2023-01-25T21:38:58.349Z,30.27
2023-01-25T21:41:29.941Z,23.58
2023-01-25T21:44:38.076Z,26.98
2023-01-25T21:47:30.032Z,28.10
2023-01-25T21:50:11.058Z,27.17
2023-01-25T21:52:38.154Z,25.42
2023-01-25T21:55:05.896Z,27.20
2023-01-25T21:57:32.914Z,23.42
2023-01-25T21:59:59.875Z,20.52
2023-01-25T22:02:27.022Z,20.42
2023-01-25T22:04:54.061Z,18.55
2023-01-25T22:07:21.009Z,18.58
2023-01-25T22:09:49.447Z,24.23
2023-01-25T22:12:16.561Z,19.73
2023-01-25T22:14:43.426Z,20.13
2023-01-25T22:17:10.422Z,20.42
2023-01-25T22:19:37.319Z,18.92
2023-01-25T22:22:04.344Z,21.02
2023-01-25T22:24:31.628Z,24.58
2023-01-25T22:27:32.665Z,23.23
2023-01-25T22:29:59.510Z,23.98
2023-01-25T22:32:26.526Z,22.63
2023-01-25T22:34:54.893Z,22.98
2023-01-25T22:37:22.086Z,27.38
2023-01-25T22:39:49.131Z,21.80
2023-01-25T22:42:16.080Z,24.80
2023-01-25T22:44:42.993Z,26.42
2023-01-25T22:47:10.022Z,21.65
2023-01-25T22:49:36.955Z,25.48
2023-01-25T22:52:03.956Z,20.63
2023-01-25T22:54:30.948Z,22.15
2023-01-25T22:56:59.620Z,22.25
2023-01-25T22:59:26.755Z,24.10
2023-01-25T23:01:53.779Z,25.08
2023-01-25T23:04:20.776Z,20.02
2023-01-25T23:06:47.735Z,20.48
2023-01-25T23:09:14.682Z,24.08
2023-01-25T23:11:41.698Z,22.25
2023-01-25T23:14:30.703Z,20.92
2023-01-25T23:17:18.023Z,23.13
2023-01-25T23:19:45.115Z,21.25
2023-01-25T23:22:12.107Z,21.95
2023-01-25T23:24:39.041Z,25.65
2023-01-25T23:27:06.030Z,22.65
2023-01-25T23:29:33.265Z,25.08
2023-01-25T23:32:00.435Z,21.67
2023-01-25T23:34:27.637Z,22.85
2023-01-25T23:36:54.588Z,23.48
2023-01-25T23:39:22.962Z,19.85
2023-01-25T23:41:51.761Z,22.92
2023-01-25T23:44:18.896Z,24.15
2023-01-25T23:46:46.346Z,23.55
2023-01-25T23:49:13.550Z,27.20
2023-01-25T23:51:40.593Z,25.17
2023-01-25T23:54:07.628Z,23.45
2023-01-25T23:56:34.712Z,20.08
2023-01-25T23:59:02.140Z,24.83
